Time;durP1;ratioP1;P1;durP2;ratioP2;P2;SDS_P1;SDS_P2;PMS_P1;PMS_P2;Temp;Humidity;BMP_temperature;BMP_pressure;BME280_temperature;BME280_humidity;BME280_pressure;Samples;Min_cycle;Max_cycle;Signal;HPM_P1;HPM_P2
2020/12/21 00:01:36;;;;;;;15.77;3.00;;;;;;;;;;5051175;28;20020;-73
2020/12/21 00:04:01;;;;;;;15.07;3.35;;;;;;;;;;5048708;28;20028;-74
2020/12/21 00:06:26;;;;;;;16.70;3.03;;;;;;;;;;5040230;28;20025;-74
2020/12/21 00:08:51;;;;;;;13.80;3.25;;;;;;;;;;5039530;28;20278;-74
2020/12/21 00:11:16;;;;;;;23.33;3.87;;;;;;;;;;5038670;28;20038;-74
2020/12/21 00:13:45;;;;;;;10.50;2.43;;;;;;;;;;5037654;28;20855;-74
2020/12/21 00:16:10;;;;;;;21.33;3.72;;;;;;;;;;5037983;28;20283;-74
2020/12/21 00:18:36;;;;;;;13.40;3.60;;;;;;;;;;5038355;28;20021;-74
2020/12/21 00:21:01;;;;;;;22.67;2.85;;;;;;;;;;5038617;28;20101;-74
2020/12/21 00:23:26;;;;;;;18.65;2.95;;;;;;;;;;5037827;28;20030;-74
2020/12/21 00:25:51;;;;;;;30.97;3.43;;;;;;;;;;5039576;28;20021;-74
2020/12/21 00:28:17;;;;;;;16.83;3.80;;;;;;;;;;5037319;28;20305;-74
2020/12/21 00:30:42;;;;;;;18.02;3.40;;;;;;;;;;5037681;28;20029;-74
2020/12/21 00:33:07;;;;;;;12.00;1.80;;;;;;;;;;5039633;28;20489;-74
2020/12/21 00:35:32;;;;;;;13.13;2.75;;;;;;;;;;5043197;28;20264;-74
2020/12/21 00:37:58;;;;;;;7.50;2.80;;;;;;;;;;5071325;28;20535;-73
2020/12/21 00:40:25;;;;;;;16.90;3.85;;;;;;;;;;5057562;28;20261;-73
2020/12/21 00:42:51;;;;;;;11.68;2.63;;;;;;;;;;5064120;28;20647;-73
2020/12/21 00:45:16;;;;;;;12.65;2.58;;;;;;;;;;5066036;28;20063;-73
2020/12/21 00:47:44;;;;;;;8.52;3.20;;;;;;;;;;5053672;28;20552;-73
2020/12/21 00:50:09;;;;;;;17.10;2.97;;;;;;;;;;5050631;28;20032;-73
2020/12/21 00:52:34;;;;;;;22.10;3.13;;;;;;;;;;5046665;28;20072;-73
2020/12/21 00:54:59;;;;;;;9.47;2.97;;;;;;;;;;5059145;28;20449;-73
2020/12/21 00:57:24;;;;;;;21.60;2.40;;;;;;;;;;5050066;28;20331;-73
2020/12/21 00:59:49;;;;;;;7.03;1.27;;;;;;;;;;5038140;28;20728;-73
2020/12/21 01:02:14;;;;;;;10.90;1.73;;;;;;;;;;5046976;28;20259;-73
2020/12/21 01:04:40;;;;;;;21.97;3.53;;;;;;;;;;5064827;28;20838;-73
2020/12/21 01:07:05;;;;;;;20.35;2.83;;;;;;;;;;5064996;28;20259;-73
2020/12/21 01:09:30;;;;;;;10.50;2.58;;;;;;;;;;5059060;28;20507;-73
2020/12/21 01:11:55;;;;;;;9.47;1.77;;;;;;;;;;5066857;28;20086;-73
2020/12/21 01:14:20;;;;;;;14.77;3.50;;;;;;;;;;5061698;28;20323;-73
2020/12/21 01:16:46;;;;;;;17.65;3.83;;;;;;;;;;5068731;28;20269;-73
2020/12/21 01:19:11;;;;;;;5.47;1.95;;;;;;;;;;5055764;28;20350;-73
2020/12/21 01:21:36;;;;;;;8.32;2.53;;;;;;;;;;5056493;28;20021;-73
2020/12/21 01:24:01;;;;;;;19.40;2.72;;;;;;;;;;5062598;28;20033;-73
2020/12/21 01:26:27;;;;;;;11.70;2.28;;;;;;;;;;5059498;28;20024;-73
2020/12/21 01:28:52;;;;;;;10.07;2.60;;;;;;;;;;5067413;28;20017;-73
2020/12/21 01:31:18;;;;;;;15.07;3.10;;;;;;;;;;5059926;28;20044;-73
2020/12/21 01:33:44;;;;;;;9.70;2.00;;;;;;;;;;5063704;28;20031;-73
2020/12/21 01:36:09;;;;;;;6.85;1.80;;;;;;;;;;5064196;28;20096;-73
2020/12/21 01:38:34;;;;;;;12.98;4.32;;;;;;;;;;5060789;28;20030;-73
2020/12/21 01:40:59;;;;;;;18.08;3.30;;;;;;;;;;5066809;28;20017;-73
2020/12/21 01:43:24;;;;;;;9.07;2.42;;;;;;;;;;5068473;28;20119;-73
2020/12/21 01:45:49;;;;;;;16.05;2.72;;;;;;;;;;5064009;28;20361;-73
2020/12/21 01:48:15;;;;;;;18.92;3.17;;;;;;;;;;5063590;28;20029;-73
2020/12/21 01:50:40;;;;;;;12.32;1.95;;;;;;;;;;5049440;28;20035;-73
2020/12/21 01:53:10;;;;;;;14.25;2.83;;;;;;;;;;5056370;28;20450;-73
2020/12/21 01:55:40;;;;;;;7.07;1.80;;;;;;;;;;5061817;28;20527;-73
2020/12/21 01:58:05;;;;;;;21.30;3.20;;;;;;;;;;5066355;28;20016;-73
2020/12/21 02:00:31;;;;;;;16.02;2.95;;;;;;;;;;5058947;28;20286;-73
2020/12/21 02:02:57;;;;;;;7.95;2.40;;;;;;;;;;5058385;28;20039;-73
2020/12/21 02:05:22;;;;;;;19.27;2.80;;;;;;;;;;5060957;28;20504;-73
2020/12/21 02:07:47;;;;;;;14.70;2.35;;;;;;;;;;5061779;28;20024;-73
2020/12/21 02:10:13;;;;;;;1.90;0.80;;;;;;;;;;5058450;28;20025;-73
2020/12/21 02:12:38;;;;;;;6.20;1.85;;;;;;;;;;5058551;28;20059;-73
2020/12/21 02:15:03;;;;;;;14.88;3.50;;;;;;;;;;5062072;28;20031;-73
2020/12/21 02:17:29;;;;;;;17.10;2.72;;;;;;;;;;5064964;28;20051;-73
2020/12/21 02:19:54;;;;;;;8.97;1.80;;;;;;;;;;5059855;28;20097;-73
2020/12/21 02:22:19;;;;;;;3.97;1.75;;;;;;;;;;5067932;28;20267;-73
2020/12/21 02:24:44;;;;;;;13.15;2.42;;;;;;;;;;5062988;28;20021;-73
2020/12/21 02:27:09;;;;;;;10.77;1.30;;;;;;;;;;5061878;28;20373;-74
2020/12/21 02:29:34;;;;;;;18.88;3.08;;;;;;;;;;5056226;28;20265;-73
2020/12/21 02:32:00;;;;;;;7.80;2.73;;;;;;;;;;5059087;28;20413;-73
2020/12/21 02:34:26;;;;;;;5.97;1.63;;;;;;;;;;5060539;28;20290;-74
2020/12/21 02:36:52;;;;;;;14.85;2.03;;;;;;;;;;5063685;28;20019;-73
2020/12/21 02:39:17;;;;;;;8.02;1.33;;;;;;;;;;5063893;28;20032;-73
2020/12/21 02:41:42;;;;;;;13.20;1.70;;;;;;;;;;5064925;28;20091;-73
2020/12/21 02:44:07;;;;;;;8.67;1.97;;;;;;;;;;5061743;28;20295;-73
2020/12/21 02:46:33;;;;;;;15.25;2.38;;;;;;;;;;5059924;28;20270;-73
2020/12/21 02:48:58;;;;;;;5.73;1.20;;;;;;;;;;5055070;28;20028;-73
2020/12/21 02:51:23;;;;;;;22.08;3.72;;;;;;;;;;5064560;28;20346;-73
2020/12/21 02:53:49;;;;;;;12.55;2.15;;;;;;;;;;5127012;22;20045;-67
2020/12/21 02:56:14;;;;;;;6.97;1.63;;;;;;;;;;5048331;28;20025;-67
2020/12/21 02:58:39;;;;;;;11.20;1.73;;;;;;;;;;5050638;28;20017;-67
2020/12/21 03:01:04;;;;;;;18.05;2.92;;;;;;;;;;5052501;28;20033;-67
2020/12/21 03:03:29;;;;;;;16.93;2.97;;;;;;;;;;5050107;28;20083;-67
2020/12/21 03:05:55;;;;;;;8.50;1.90;;;;;;;;;;5051534;28;20354;-67
2020/12/21 03:08:20;;;;;;;13.32;3.17;;;;;;;;;;5047427;28;20260;-67
2020/12/21 03:10:46;;;;;;;6.65;2.00;;;;;;;;;;5051328;28;20393;-67
2020/12/21 03:13:11;;;;;;;7.63;2.22;;;;;;;;;;5051596;28;20056;-67
2020/12/21 03:15:36;;;;;;;15.60;3.42;;;;;;;;;;5052034;28;20100;-67
2020/12/21 03:18:02;;;;;;;8.80;2.88;;;;;;;;;;5051260;28;20097;-67
2020/12/21 03:20:27;;;;;;;16.70;3.05;;;;;;;;;;5051705;28;20025;-67
2020/12/21 03:22:52;;;;;;;13.13;2.70;;;;;;;;;;5051787;28;20036;-67
2020/12/21 03:25:17;;;;;;;15.48;3.10;;;;;;;;;;5048279;28;20052;-67
2020/12/21 03:27:43;;;;;;;16.63;1.80;;;;;;;;;;5050927;28;20484;-67
2020/12/21 03:30:08;;;;;;;19.08;2.53;;;;;;;;;;5046090;28;20017;-67
2020/12/21 03:32:34;;;;;;;11.43;3.20;;;;;;;;;;5050270;28;20025;-67
2020/12/21 03:34:59;;;;;;;11.00;1.30;;;;;;;;;;5052249;28;20029;-67
2020/12/21 03:37:24;;;;;;;13.43;2.13;;;;;;;;;;5051273;28;20033;-67
2020/12/21 03:39:49;;;;;;;11.70;2.55;;;;;;;;;;5050949;28;20028;-67
2020/12/21 03:42:15;;;;;;;13.32;3.55;;;;;;;;;;5043950;28;20021;-67
2020/12/21 03:44:40;;;;;;;10.47;2.13;;;;;;;;;;5051325;28;20028;-67
2020/12/21 03:47:05;;;;;;;7.30;2.00;;;;;;;;;;5051651;28;20278;-67
2020/12/21 03:49:30;;;;;;;13.63;1.75;;;;;;;;;;5051258;28;20024;-67
2020/12/21 03:51:55;;;;;;;9.85;2.08;;;;;;;;;;5045926;28;20444;-67
2020/12/21 03:54:21;;;;;;;10.83;1.50;;;;;;;;;;5049513;28;20119;-67
2020/12/21 03:56:46;;;;;;;12.70;2.10;;;;;;;;;;5050557;28;20267;-67
2020/12/21 03:59:11;;;;;;;8.27;2.22;;;;;;;;;;5050785;28;20112;-67
2020/12/21 04:01:37;;;;;;;11.95;1.77;;;;;;;;;;5050817;28;20048;-67
2020/12/21 04:04:03;;;;;;;12.27;2.10;;;;;;;;;;5046258;28;20021;-67
2020/12/21 04:06:28;;;;;;;4.80;0.85;;;;;;;;;;5051961;28;20044;-67
2020/12/21 04:08:54;;;;;;;10.88;2.22;;;;;;;;;;5047859;28;20029;-67
2020/12/21 04:11:19;;;;;;;18.73;2.20;;;;;;;;;;5051277;28;20111;-67
2020/12/21 04:13:44;;;;;;;7.13;2.03;;;;;;;;;;5050059;28;20294;-67
2020/12/21 04:16:09;;;;;;;6.70;1.90;;;;;;;;;;5050994;28;20346;-67
2020/12/21 04:18:34;;;;;;;5.07;1.47;;;;;;;;;;5050122;28;20313;-67
2020/12/21 04:20:59;;;;;;;6.37;2.43;;;;;;;;;;5047173;28;20303;-67
2020/12/21 04:23:24;;;;;;;8.27;2.15;;;;;;;;;;5049618;28;20275;-67
2020/12/21 04:25:50;;;;;;;14.60;2.77;;;;;;;;;;5050398;28;20033;-67
2020/12/21 04:28:15;;;;;;;4.20;1.92;;;;;;;;;;5050853;28;20276;-67
2020/12/21 04:30:40;;;;;;;19.33;3.22;;;;;;;;;;5050735;28;20085;-66
2020/12/21 04:33:05;;;;;;;10.05;1.42;;;;;;;;;;5048952;28;20017;-66
2020/12/21 04:35:30;;;;;;;17.83;2.43;;;;;;;;;;5041417;28;20009;-67
2020/12/21 04:37:56;;;;;;;23.05;2.65;;;;;;;;;;5050819;28;20738;-67
2020/12/21 04:40:21;;;;;;;10.30;1.92;;;;;;;;;;5049805;28;20021;-67
2020/12/21 04:42:50;;;;;;;9.48;1.88;;;;;;;;;;5050159;28;20531;-67
2020/12/21 04:45:16;;;;;;;13.38;1.90;;;;;;;;;;5047659;28;20380;-67
2020/12/21 04:47:42;;;;;;;12.75;2.13;;;;;;;;;;5049136;28;20025;-67
2020/12/21 04:50:10;;;;;;;10.77;1.75;;;;;;;;;;5042882;28;20025;-67
2020/12/21 04:52:43;;;;;;;10.90;2.25;;;;;;;;;;5049284;28;20104;-67
2020/12/21 04:55:09;;;;;;;8.90;2.10;;;;;;;;;;5045092;28;20081;-67
2020/12/21 04:57:34;;;;;;;5.10;1.27;;;;;;;;;;5046895;28;20465;-67
2020/12/21 04:59:59;;;;;;;8.73;1.23;;;;;;;;;;5050224;28;20017;-67
2020/12/21 05:02:24;;;;;;;5.77;1.87;;;;;;;;;;5045022;28;20267;-67
2020/12/21 05:04:53;;;;;;;4.83;1.00;;;;;;;;;;5049946;28;20275;-67
2020/12/21 05:07:18;;;;;;;19.65;2.50;;;;;;;;;;5050408;28;20302;-67
2020/12/21 05:09:43;;;;;;;11.23;1.77;;;;;;;;;;5048114;28;20368;-66
2020/12/21 05:12:08;;;;;;;21.40;3.53;;;;;;;;;;5048231;28;20103;-67
2020/12/21 05:14:35;;;;;;;6.93;1.40;;;;;;;;;;5049504;28;20029;-67
2020/12/21 05:17:13;;;;;;;8.65;1.58;;;;;;;;;;5046674;28;20052;-67
2020/12/21 05:19:39;;;;;;;7.57;1.50;;;;;;;;;;5047557;28;20021;-67
2020/12/21 05:22:08;;;;;;;5.75;1.65;;;;;;;;;;5028336;28;20021;-67
2020/12/21 05:24:34;;;;;;;3.15;1.00;;;;;;;;;;5048949;28;20035;-67
2020/12/21 05:27:07;;;;;;;4.13;1.15;;;;;;;;;;5046413;28;20021;-67
2020/12/21 05:29:33;;;;;;;11.98;1.92;;;;;;;;;;5047988;28;20108;-66
2020/12/21 05:31:58;;;;;;;8.43;1.63;;;;;;;;;;5047486;28;20108;-66
2020/12/21 05:34:26;;;;;;;11.23;1.58;;;;;;;;;;5047556;28;20667;-67
2020/12/21 05:36:52;;;;;;;13.90;2.05;;;;;;;;;;5036601;28;20025;-67
2020/12/21 05:39:17;;;;;;;3.63;1.10;;;;;;;;;;5042362;28;20017;-66
2020/12/21 05:41:42;;;;;;;4.03;0.98;;;;;;;;;;5048764;28;20030;-67
2020/12/21 05:44:08;;;;;;;5.72;1.65;;;;;;;;;;5048675;28;20020;-67
2020/12/21 05:46:33;;;;;;;12.93;1.17;;;;;;;;;;5048660;28;20032;-67
2020/12/21 05:48:58;;;;;;;13.00;1.65;;;;;;;;;;5048217;28;20063;-67
2020/12/21 05:51:30;;;;;;;5.43;1.27;;;;;;;;;;5044321;28;20031;-67
2020/12/21 05:53:56;;;;;;;15.15;2.15;;;;;;;;;;5045474;28;20040;-67
2020/12/21 05:56:22;;;;;;;7.72;1.15;;;;;;;;;;5047922;28;20040;-67
2020/12/21 05:58:48;;;;;;;8.40;1.73;;;;;;;;;;5048749;28;20114;-67
2020/12/21 06:01:13;;;;;;;4.85;1.55;;;;;;;;;;5047414;28;20409;-66
2020/12/21 06:03:48;;;;;;;6.80;1.70;;;;;;;;;;5047942;28;20021;-67
2020/12/21 06:06:17;;;;;;;4.90;0.95;;;;;;;;;;5048914;28;20024;-67
2020/12/21 06:08:43;;;;;;;7.80;1.95;;;;;;;;;;5046250;28;20021;-67
2020/12/21 06:11:13;;;;;;;5.60;0.95;;;;;;;;;;5045485;28;20104;-67
2020/12/21 06:13:43;;;;;;;1.80;1.17;;;;;;;;;;5048422;28;20079;-66
2020/12/21 06:16:09;;;;;;;8.02;1.27;;;;;;;;;;5047686;28;20282;-67
2020/12/21 06:18:34;;;;;;;5.57;1.10;;;;;;;;;;5047628;28;20413;-67
2020/12/21 06:20:59;;;;;;;13.25;3.28;;;;;;;;;;5047201;28;20496;-66
2020/12/21 06:23:37;;;;;;;5.63;1.13;;;;;;;;;;5041650;28;20053;-67
2020/12/21 06:26:12;;;;;;;13.35;1.80;;;;;;;;;;5043519;28;20009;-66
2020/12/21 06:28:38;;;;;;;4.72;1.50;;;;;;;;;;5047544;28;20219;-66
2020/12/21 06:31:17;;;;;;;9.63;1.55;;;;;;;;;;5050165;28;20035;-67
2020/12/21 06:33:42;;;;;;;12.93;2.40;;;;;;;;;;5051723;28;20025;-67
2020/12/21 06:36:07;;;;;;;9.07;1.55;;;;;;;;;;5053745;28;20017;-67
2020/12/21 06:38:42;;;;;;;12.23;1.88;;;;;;;;;;5045978;28;20053;-67
2020/12/21 06:41:14;;;;;;;5.18;1.45;;;;;;;;;;5051955;28;20527;-66
2020/12/21 06:43:39;;;;;;;7.18;1.88;;;;;;;;;;5050693;28;20025;-66
2020/12/21 06:46:13;;;;;;;3.95;1.27;;;;;;;;;;5051993;28;20017;-67
2020/12/21 06:48:38;;;;;;;14.52;3.05;;;;;;;;;;5045903;28;20566;-66
2020/12/21 06:51:10;;;;;;;13.07;3.43;;;;;;;;;;5051642;28;20375;-67
2020/12/21 06:53:35;;;;;;;13.15;2.15;;;;;;;;;;5050686;28;20821;-67
2020/12/21 06:56:00;;;;;;;11.10;2.20;;;;;;;;;;5051254;28;20028;-67
2020/12/21 06:58:33;;;;;;;5.45;1.90;;;;;;;;;;5051442;28;20031;-66
2020/12/21 07:00:58;;;;;;;12.30;2.05;;;;;;;;;;5051414;28;20060;-67
2020/12/21 07:03:23;;;;;;;12.77;1.90;;;;;;;;;;5049921;28;20098;-67
2020/12/21 07:05:55;;;;;;;6.05;1.15;;;;;;;;;;5042371;28;20758;-67
2020/12/21 07:08:20;;;;;;;8.68;2.85;;;;;;;;;;5048064;28;20017;-66
2020/12/21 07:10:46;;;;;;;9.50;2.47;;;;;;;;;;5046163;28;20013;-66
2020/12/21 07:13:12;;;;;;;16.77;2.20;;;;;;;;;;5050807;28;20807;-67
2020/12/21 07:15:37;;;;;;;6.22;1.13;;;;;;;;;;5046330;28;20021;-67
2020/12/21 07:18:02;;;;;;;4.53;1.83;;;;;;;;;;5047737;28;20384;-67
2020/12/21 07:20:27;;;;;;;13.32;2.35;;;;;;;;;;5049163;28;20255;-67
2020/12/21 07:22:52;;;;;;;14.10;1.70;;;;;;;;;;5032779;28;20028;-67
2020/12/21 07:25:20;;;;;;;12.02;1.33;;;;;;;;;;5048374;28;20025;-67
2020/12/21 07:27:48;;;;;;;9.63;1.98;;;;;;;;;;5051609;28;20023;-67
2020/12/21 07:30:14;;;;;;;5.40;1.83;;;;;;;;;;5048496;28;20071;-67
2020/12/21 07:32:40;;;;;;;10.23;1.88;;;;;;;;;;5046532;28;20538;-67
2020/12/21 07:35:05;;;;;;;10.83;1.87;;;;;;;;;;5048833;28;20017;-67
2020/12/21 07:37:31;;;;;;;17.92;1.75;;;;;;;;;;5034021;28;20375;-67
2020/12/21 07:39:56;;;;;;;7.85;1.52;;;;;;;;;;5049776;28;20592;-67
2020/12/21 07:42:22;;;;;;;15.73;1.60;;;;;;;;;;5049567;28;20100;-67
2020/12/21 07:44:49;;;;;;;16.70;2.58;;;;;;;;;;5049700;28;20025;-67
2020/12/21 07:47:35;;;;;;;11.52;1.77;;;;;;;;;;5046077;28;20234;-67
2020/12/21 07:50:01;;;;;;;5.30;1.58;;;;;;;;;;5044357;28;20091;-67
2020/12/21 07:52:26;;;;;;;8.70;1.55;;;;;;;;;;5045469;28;20489;-67
2020/12/21 07:54:51;;;;;;;11.27;1.95;;;;;;;;;;5051561;28;20385;-67
2020/12/21 07:57:17;;;;;;;5.82;1.73;;;;;;;;;;5048925;28;20021;-67
2020/12/21 07:59:42;;;;;;;14.15;1.85;;;;;;;;;;5045906;28;20028;-67
2020/12/21 08:02:08;;;;;;;4.57;1.20;;;;;;;;;;5045693;28;20067;-66
2020/12/21 08:04:34;;;;;;;10.90;2.55;;;;;;;;;;5048444;28;20071;-68
2020/12/21 08:07:05;;;;;;;18.45;2.15;;;;;;;;;;5048705;28;20469;-67
2020/12/21 08:09:31;;;;;;;11.65;1.95;;;;;;;;;;5048555;28;20021;-67
2020/12/21 08:11:58;;;;;;;2.25;1.02;;;;;;;;;;5045688;28;20067;-67
2020/12/21 08:14:23;;;;;;;2.15;0.88;;;;;;;;;;5044265;28;20359;-68
2020/12/21 08:16:49;;;;;;;4.53;1.50;;;;;;;;;;5046294;28;20150;-65
2020/12/21 08:19:20;;;;;;;13.52;2.50;;;;;;;;;;5049381;28;20260;-67
2020/12/21 08:21:46;;;;;;;9.90;2.28;;;;;;;;;;5049944;28;20024;-66
2020/12/21 08:24:11;;;;;;;15.20;2.40;;;;;;;;;;5046937;28;20028;-66
2020/12/21 08:26:37;;;;;;;10.75;2.08;;;;;;;;;;5049915;28;20024;-66
2020/12/21 08:29:03;;;;;;;4.90;1.10;;;;;;;;;;5047708;28;20028;-66
2020/12/21 08:31:28;;;;;;;5.95;1.65;;;;;;;;;;5046972;28;20043;-66
2020/12/21 08:33:56;;;;;;;11.65;2.28;;;;;;;;;;5048718;28;20044;-66
2020/12/21 08:36:23;;;;;;;7.45;1.33;;;;;;;;;;5043138;28;20029;-66
2020/12/21 08:38:49;;;;;;;19.67;3.22;;;;;;;;;;5038902;28;20100;-66
2020/12/21 08:41:14;;;;;;;18.50;2.28;;;;;;;;;;5035395;28;20116;-66
2020/12/21 08:43:40;;;;;;;6.47;1.60;;;;;;;;;;5050117;28;20021;-67
2020/12/21 08:46:06;;;;;;;6.93;2.03;;;;;;;;;;5049805;28;20099;-66
2020/12/21 08:48:31;;;;;;;9.30;2.22;;;;;;;;;;5041400;28;20386;-66
2020/12/21 08:50:56;;;;;;;4.70;1.23;;;;;;;;;;5047251;28;20021;-66
2020/12/21 08:53:21;;;;;;;4.13;2.23;;;;;;;;;;5035029;28;20056;-67
2020/12/21 08:55:47;;;;;;;14.40;2.40;;;;;;;;;;5042423;28;20755;-66
2020/12/21 08:58:12;;;;;;;22.23;2.72;;;;;;;;;;5047904;28;20251;-66
2020/12/21 09:00:37;;;;;;;17.73;3.33;;;;;;;;;;5047042;28;20481;-66
2020/12/21 09:03:02;;;;;;;14.17;2.23;;;;;;;;;;5047294;28;20078;-66
2020/12/21 09:05:27;;;;;;;16.17;1.23;;;;;;;;;;5047582;28;20267;-68
2020/12/21 09:07:52;;;;;;;1.57;1.10;;;;;;;;;;5075140;23;20786;-73
2020/12/21 09:10:18;;;;;;;18.02;1.70;;;;;;;;;;5048673;28;20266;-74
2020/12/21 09:12:43;;;;;;;7.93;1.30;;;;;;;;;;5050128;28;20099;-73
2020/12/21 09:15:08;;;;;;;6.60;1.33;;;;;;;;;;5050044;28;20306;-74
2020/12/21 09:17:33;;;;;;;8.23;2.25;;;;;;;;;;5050334;28;20032;-74
2020/12/21 09:19:58;;;;;;;9.82;1.77;;;;;;;;;;5049163;28;20124;-73
2020/12/21 09:22:23;;;;;;;7.82;1.90;;;;;;;;;;5049757;28;20047;-73
2020/12/21 09:24:49;;;;;;;4.93;1.63;;;;;;;;;;5047864;28;20522;-74
2020/12/21 09:27:14;;;;;;;8.13;1.35;;;;;;;;;;5050049;28;20256;-74
2020/12/21 09:29:39;;;;;;;6.82;1.80;;;;;;;;;;5048950;28;20055;-73
2020/12/21 09:32:04;;;;;;;7.30;1.30;;;;;;;;;;5049366;28;20029;-74
2020/12/21 09:34:30;;;;;;;7.27;1.60;;;;;;;;;;5050434;28;20033;-73
2020/12/21 09:36:55;;;;;;;8.33;1.33;;;;;;;;;;5048178;28;20751;-73
2020/12/21 09:39:21;;;;;;;10.77;1.55;;;;;;;;;;5049411;28;20262;-74
2020/12/21 09:41:46;;;;;;;9.70;1.40;;;;;;;;;;5049446;28;20096;-74
2020/12/21 09:44:11;;;;;;;3.00;0.73;;;;;;;;;;5050003;28;20174;-73
2020/12/21 09:46:37;;;;;;;16.33;1.60;;;;;;;;;;5048854;28;20266;-74
2020/12/21 09:49:05;;;;;;;10.15;1.75;;;;;;;;;;5049445;28;20707;-73
2020/12/21 09:51:31;;;;;;;5.97;1.27;;;;;;;;;;5049598;28;20504;-73
2020/12/21 09:53:56;;;;;;;7.28;1.95;;;;;;;;;;5048959;28;20029;-73
2020/12/21 09:56:21;;;;;;;11.90;2.08;;;;;;;;;;5049608;28;20040;-73
2020/12/21 09:58:46;;;;;;;5.33;1.27;;;;;;;;;;5049291;28;20016;-74
2020/12/21 10:01:12;;;;;;;10.13;1.67;;;;;;;;;;5049382;28;20735;-74
2020/12/21 10:03:38;;;;;;;4.40;1.63;;;;;;;;;;5048490;28;20263;-74
2020/12/21 10:06:03;;;;;;;6.15;1.40;;;;;;;;;;5048130;28;20023;-74
2020/12/21 10:08:28;;;;;;;4.63;1.58;;;;;;;;;;5050196;28;20404;-74
2020/12/21 10:10:54;;;;;;;3.63;1.35;;;;;;;;;;5048837;28;20078;-73
2020/12/21 10:13:19;;;;;;;8.23;1.87;;;;;;;;;;5048811;28;20028;-73
2020/12/21 10:15:44;;;;;;;10.52;1.75;;;;;;;;;;5050281;28;20611;-73
2020/12/21 10:18:09;;;;;;;12.43;1.40;;;;;;;;;;5049224;28;20103;-73
2020/12/21 10:20:34;;;;;;;8.35;1.33;;;;;;;;;;5049328;28;20263;-73
2020/12/21 10:23:00;;;;;;;18.30;1.97;;;;;;;;;;5049222;28;20393;-73
2020/12/21 10:25:25;;;;;;;9.07;1.70;;;;;;;;;;5048667;28;20259;-73
2020/12/21 10:27:51;;;;;;;16.47;2.23;;;;;;;;;;5049358;28;20025;-74
2020/12/21 10:30:16;;;;;;;5.38;1.00;;;;;;;;;;5047657;28;20351;-73
2020/12/21 10:32:43;;;;;;;5.45;1.50;;;;;;;;;;5049056;28;20137;-73
2020/12/21 10:35:08;;;;;;;8.02;2.05;;;;;;;;;;5047212;28;20017;-73
2020/12/21 10:37:33;;;;;;;3.95;1.30;;;;;;;;;;5049515;28;20105;-73
2020/12/21 10:39:58;;;;;;;12.32;1.52;;;;;;;;;;5048857;28;20029;-73
2020/12/21 10:42:24;;;;;;;19.45;3.08;;;;;;;;;;5042922;28;20477;-73
2020/12/21 10:44:49;;;;;;;19.52;1.75;;;;;;;;;;5039327;28;20041;-73
2020/12/21 10:47:14;;;;;;;7.72;1.25;;;;;;;;;;5043530;28;20032;-73
2020/12/21 10:49:39;;;;;;;1.45;1.15;;;;;;;;;;5040980;28;20021;-73
2020/12/21 10:52:05;;;;;;;13.50;2.42;;;;;;;;;;5032766;28;20029;-73
2020/12/21 10:54:30;;;;;;;14.68;2.97;;;;;;;;;;5042500;28;20035;-73
2020/12/21 10:56:55;;;;;;;12.65;2.42;;;;;;;;;;5043015;28;20473;-73
2020/12/21 10:59:20;;;;;;;7.95;2.22;;;;;;;;;;5041096;28;20028;-73
2020/12/21 11:01:46;;;;;;;16.42;2.03;;;;;;;;;;5039291;28;20036;-73
2020/12/21 11:04:11;;;;;;;10.48;2.25;;;;;;;;;;5040910;28;20072;-73
2020/12/21 11:06:36;;;;;;;3.85;1.67;;;;;;;;;;5039508;28;20083;-73
2020/12/21 11:09:02;;;;;;;5.53;2.23;;;;;;;;;;5041498;28;20461;-73
2020/12/21 11:11:27;;;;;;;6.25;1.88;;;;;;;;;;5039711;28;20260;-73
2020/12/21 11:13:56;;;;;;;7.60;2.30;;;;;;;;;;5040982;28;20037;-73
2020/12/21 11:16:22;;;;;;;8.18;1.58;;;;;;;;;;5037650;28;20792;-72
2020/12/21 11:18:47;;;;;;;8.63;1.63;;;;;;;;;;5044148;28;20035;-73
2020/12/21 11:21:13;;;;;;;2.85;1.08;;;;;;;;;;5040891;28;20024;-73
2020/12/21 11:23:38;;;;;;;6.55;2.03;;;;;;;;;;5040838;28;20044;-73
2020/12/21 11:26:04;;;;;;;10.45;1.88;;;;;;;;;;5042709;28;20021;-73
2020/12/21 11:28:29;;;;;;;8.00;2.13;;;;;;;;;;5044752;28;20033;-73
2020/12/21 11:30:54;;;;;;;14.45;2.20;;;;;;;;;;5043476;28;20044;-73
2020/12/21 11:33:19;;;;;;;14.07;2.10;;;;;;;;;;5043162;28;20307;-74
2020/12/21 11:35:44;;;;;;;10.32;2.78;;;;;;;;;;5043869;28;20273;-73
2020/12/21 11:38:09;;;;;;;8.13;2.20;;;;;;;;;;5045248;28;20029;-72
2020/12/21 11:40:35;;;;;;;6.47;2.77;;;;;;;;;;5038586;28;20321;-74
2020/12/21 11:43:00;;;;;;;7.30;2.58;;;;;;;;;;5041333;28;20639;-74
2020/12/21 11:45:26;;;;;;;6.85;2.60;;;;;;;;;;5046810;28;20029;-73
2020/12/21 11:47:51;;;;;;;6.68;2.05;;;;;;;;;;5041917;28;20040;-73
2020/12/21 11:50:16;;;;;;;15.13;2.97;;;;;;;;;;5041503;28;20123;-73
2020/12/21 11:52:41;;;;;;;8.20;3.15;;;;;;;;;;5044261;28;20798;-74
2020/12/21 11:55:07;;;;;;;10.63;3.55;;;;;;;;;;5045893;28;20082;-73
2020/12/21 11:57:32;;;;;;;10.23;2.38;;;;;;;;;;5047379;28;20039;-73
2020/12/21 11:59:57;;;;;;;6.93;3.15;;;;;;;;;;5045757;28;20029;-73
2020/12/21 12:02:22;;;;;;;5.13;2.30;;;;;;;;;;5043260;28;20025;-73
2020/12/21 12:04:48;;;;;;;4.40;1.45;;;;;;;;;;5041576;28;20025;-73
2020/12/21 12:07:13;;;;;;;10.35;4.05;;;;;;;;;;5039234;28;20108;-73
2020/12/21 12:09:38;;;;;;;5.75;2.20;;;;;;;;;;5044077;28;20021;-73
2020/12/21 12:12:04;;;;;;;10.55;4.93;;;;;;;;;;5051426;28;20249;-73
2020/12/21 12:14:29;;;;;;;9.90;2.40;;;;;;;;;;5048454;28;20481;-73
2020/12/21 12:16:54;;;;;;;13.30;3.88;;;;;;;;;;5046524;28;20268;-72
2020/12/21 12:19:22;;;;;;;4.40;2.05;;;;;;;;;;5050945;28;20377;-73
2020/12/21 12:21:48;;;;;;;7.55;2.58;;;;;;;;;;5051402;28;20075;-73
2020/12/21 12:24:13;;;;;;;5.88;2.47;;;;;;;;;;5050446;28;20440;-73
2020/12/21 12:26:39;;;;;;;9.33;3.33;;;;;;;;;;5049896;28;20044;-73
2020/12/21 12:29:04;;;;;;;7.50;2.20;;;;;;;;;;5048905;28;20271;-73
2020/12/21 12:31:29;;;;;;;9.23;2.97;;;;;;;;;;5049617;28;20318;-73
2020/12/21 12:33:54;;;;;;;7.25;2.58;;;;;;;;;;5050037;28;20306;-73
2020/12/21 12:36:24;;;;;;;3.85;1.90;;;;;;;;;;5048792;28;20030;-73
2020/12/21 12:38:49;;;;;;;10.93;2.38;;;;;;;;;;5050236;28;20306;-73
2020/12/21 12:41:14;;;;;;;11.52;3.13;;;;;;;;;;5049088;28;20052;-73
2020/12/21 12:43:40;;;;;;;6.97;3.50;;;;;;;;;;5048996;28;20150;-73
2020/12/21 12:46:05;;;;;;;12.82;3.03;;;;;;;;;;5050325;28;20021;-73
2020/12/21 12:48:31;;;;;;;14.05;3.20;;;;;;;;;;5050010;28;20500;-73
2020/12/21 12:50:56;;;;;;;10.77;3.47;;;;;;;;;;5051040;28;20420;-73
2020/12/21 12:53:21;;;;;;;9.57;2.73;;;;;;;;;;5049687;28;20032;-73
2020/12/21 12:55:46;;;;;;;14.70;2.03;;;;;;;;;;5048496;28;20710;-73
2020/12/21 12:58:12;;;;;;;8.23;2.47;;;;;;;;;;5049851;28;20017;-73
2020/12/21 13:00:37;;;;;;;9.30;2.47;;;;;;;;;;5049566;28;20279;-73
2020/12/21 13:03:02;;;;;;;8.60;2.38;;;;;;;;;;5048974;28;20255;-72
2020/12/21 13:05:27;;;;;;;7.05;2.67;;;;;;;;;;5049159;28;20389;-73
2020/12/21 13:07:52;;;;;;;6.68;2.15;;;;;;;;;;5048764;28;20047;-72
2020/12/21 13:10:18;;;;;;;4.82;2.22;;;;;;;;;;5048536;28;20025;-72
2020/12/21 13:12:43;;;;;;;8.13;3.60;;;;;;;;;;5049713;28;20320;-72
2020/12/21 13:15:08;;;;;;;12.87;3.53;;;;;;;;;;5049040;28;20446;-72
2020/12/21 13:17:33;;;;;;;2.73;1.57;;;;;;;;;;5048993;28;20264;-72
2020/12/21 13:19:58;;;;;;;7.90;2.67;;;;;;;;;;5049737;28;20679;-72
2020/12/21 13:22:25;;;;;;;8.93;3.33;;;;;;;;;;5047187;28;20111;-72
2020/12/21 13:24:50;;;;;;;3.60;2.20;;;;;;;;;;5049235;28;20047;-72
2020/12/21 13:27:15;;;;;;;4.63;2.50;;;;;;;;;;5049604;28;20469;-72
2020/12/21 13:29:40;;;;;;;8.17;2.57;;;;;;;;;;5048711;28;20329;-72
2020/12/21 13:32:05;;;;;;;5.88;3.03;;;;;;;;;;5048109;28;20272;-72
2020/12/21 13:34:30;;;;;;;9.70;2.65;;;;;;;;;;5044002;28;20683;-72
2020/12/21 13:36:57;;;;;;;6.57;2.90;;;;;;;;;;5043658;28;20028;-72
2020/12/21 13:39:22;;;;;;;8.02;3.05;;;;;;;;;;5048312;28;20272;-73
2020/12/21 13:41:48;;;;;;;13.20;3.07;;;;;;;;;;5049528;28;20017;-72
2020/12/21 13:44:13;;;;;;;8.35;2.78;;;;;;;;;;5048153;28;20349;-72
2020/12/21 13:46:38;;;;;;;11.52;3.65;;;;;;;;;;5046724;28;20033;-73
2020/12/21 13:49:03;;;;;;;6.40;2.13;;;;;;;;;;5048669;28;20017;-73
2020/12/21 13:51:28;;;;;;;5.05;2.78;;;;;;;;;;5046596;28;20279;-73
2020/12/21 13:53:54;;;;;;;6.47;2.95;;;;;;;;;;5050139;28;20074;-74
2020/12/21 13:56:19;;;;;;;6.30;2.83;;;;;;;;;;5042031;28;20029;-74
2020/12/21 13:58:44;;;;;;;6.53;2.40;;;;;;;;;;5036551;28;20256;-74
2020/12/21 14:01:09;;;;;;;16.85;3.30;;;;;;;;;;5039744;28;20029;-74
2020/12/21 14:03:35;;;;;;;9.38;3.15;;;;;;;;;;5037838;28;20021;-74
2020/12/21 14:06:00;;;;;;;5.57;2.90;;;;;;;;;;5039502;28;20032;-74
2020/12/21 14:08:25;;;;;;;14.20;3.35;;;;;;;;;;5038107;28;20279;-74
2020/12/21 14:10:50;;;;;;;3.58;1.95;;;;;;;;;;5039853;28;20029;-74
2020/12/21 14:13:15;;;;;;;8.80;2.10;;;;;;;;;;5039867;28;20036;-74
2020/12/21 14:15:41;;;;;;;11.38;3.75;;;;;;;;;;5041576;28;20090;-75
2020/12/21 14:18:06;;;;;;;5.50;2.57;;;;;;;;;;5040329;28;20432;-74
2020/12/21 14:20:31;;;;;;;7.55;2.45;;;;;;;;;;5041657;28;20263;-74
2020/12/21 14:22:56;;;;;;;10.40;3.75;;;;;;;;;;5042204;28;20028;-74
2020/12/21 14:25:24;;;;;;;4.90;2.63;;;;;;;;;;5039968;28;20033;-74
2020/12/21 14:27:49;;;;;;;5.03;2.55;;;;;;;;;;5037746;28;20029;-74